sensor_id;sensor_type;location;lat;lon;timestamp;temperature;humidity
44271;DHT22;29963;44.594;11.368;2022-08-19T00:00:36;22.60;99.90
44271;DHT22;29963;44.594;11.368;2022-08-19T00:03:04;22.60;99.90
44271;DHT22;29963;44.594;11.368;2022-08-19T00:05:30;22.60;99.90
44271;DHT22;29963;44.594;11.368;2022-08-19T00:07:56;22.70;99.90
44271;DHT22;29963;44.594;11.368;2022-08-19T00:10:22;22.70;99.90
44271;DHT22;29963;44.594;11.368;2022-08-19T00:12:50;22.70;99.90
44271;DHT22;29963;44.594;11.368;2022-08-19T00:15:19;22.80;99.90
44271;DHT22;29963;44.594;11.368;2022-08-19T00:17:45;22.90;99.90
44271;DHT22;29963;44.594;11.368;2022-08-19T00:20:14;23.00;99.90
44271;DHT22;29963;44.594;11.368;2022-08-19T00:22:43;23.10;99.90
44271;DHT22;29963;44.594;11.368;2022-08-19T00:25:10;23.20;99.90
44271;DHT22;29963;44.594;11.368;2022-08-19T00:27:36;23.30;99.90
44271;DHT22;29963;44.594;11.368;2022-08-19T00:30:03;23.30;99.90
44271;DHT22;29963;44.594;11.368;2022-08-19T00:32:30;23.40;99.90
44271;DHT22;29963;44.594;11.368;2022-08-19T00:34:56;23.50;99.90
44271;DHT22;29963;44.594;11.368;2022-08-19T00:37:23;23.50;99.90
44271;DHT22;29963;44.594;11.368;2022-08-19T00:39:51;23.50;99.90
44271;DHT22;29963;44.594;11.368;2022-08-19T00:42:18;23.50;99.90
44271;DHT22;29963;44.594;11.368;2022-08-19T00:44:44;23.50;99.90
44271;DHT22;29963;44.594;11.368;2022-08-19T00:47:10;23.50;99.90
44271;DHT22;29963;44.594;11.368;2022-08-19T00:49:52;23.50;99.90
44271;DHT22;29963;44.594;11.368;2022-08-19T00:52:26;23.40;99.90
44271;DHT22;29963;44.594;11.368;2022-08-19T00:54:54;23.40;99.90
44271;DHT22;29963;44.594;11.368;2022-08-19T00:57:26;23.40;99.90
44271;DHT22;29963;44.594;11.368;2022-08-19T00:59:55;23.30;99.90
44271;DHT22;29963;44.594;11.368;2022-08-19T01:02:24;23.30;99.90
44271;DHT22;29963;44.594;11.368;2022-08-19T01:04:50;23.30;99.90
44271;DHT22;29963;44.594;11.368;2022-08-19T01:07:16;23.20;99.90
44271;DHT22;29963;44.594;11.368;2022-08-19T01:09:42;23.20;99.90
44271;DHT22;29963;44.594;11.368;2022-08-19T01:12:08;23.10;99.90
44271;DHT22;29963;44.594;11.368;2022-08-19T01:14:36;23.00;99.90
44271;DHT22;29963;44.594;11.368;2022-08-19T01:17:02;22.90;99.90
44271;DHT22;29963;44.594;11.368;2022-08-19T01:19:31;22.90;99.90
44271;DHT22;29963;44.594;11.368;2022-08-19T01:22:04;22.80;99.90
44271;DHT22;29963;44.594;11.368;2022-08-19T01:24:31;22.80;99.90
44271;DHT22;29963;44.594;11.368;2022-08-19T01:26:57;22.80;99.90
44271;DHT22;29963;44.594;11.368;2022-08-19T01:29:23;22.80;99.90
44271;DHT22;29963;44.594;11.368;2022-08-19T01:31:48;22.80;99.90
44271;DHT22;29963;44.594;11.368;2022-08-19T01:34:19;22.70;99.90
44271;DHT22;29963;44.594;11.368;2022-08-19T01:36:47;22.70;99.90
44271;DHT22;29963;44.594;11.368;2022-08-19T01:39:19;22.70;99.90
44271;DHT22;29963;44.594;11.368;2022-08-19T01:41:46;22.70;99.90
44271;DHT22;29963;44.594;11.368;2022-08-19T01:44:14;22.70;99.90
44271;DHT22;29963;44.594;11.368;2022-08-19T01:46:41;22.70;99.90
44271;DHT22;29963;44.594;11.368;2022-08-19T01:49:07;22.70;99.90
44271;DHT22;29963;44.594;11.368;2022-08-19T01:51:33;22.70;99.90
44271;DHT22;29963;44.594;11.368;2022-08-19T01:53:59;22.70;99.90
44271;DHT22;29963;44.594;11.368;2022-08-19T01:56:25;22.70;99.90
44271;DHT22;29963;44.594;11.368;2022-08-19T01:58:55;22.80;99.90
44271;DHT22;29963;44.594;11.368;2022-08-19T02:01:21;22.80;99.90
44271;DHT22;29963;44.594;11.368;2022-08-19T02:03:47;22.80;99.90
44271;DHT22;29963;44.594;11.368;2022-08-19T02:06:13;22.80;99.90
44271;DHT22;29963;44.594;11.368;2022-08-19T02:08:39;22.80;99.90
44271;DHT22;29963;44.594;11.368;2022-08-19T02:11:06;22.80;99.90
44271;DHT22;29963;44.594;11.368;2022-08-19T02:13:34;22.90;99.90
44271;DHT22;29963;44.594;11.368;2022-08-19T02:16:00;22.90;99.90
44271;DHT22;29963;44.594;11.368;2022-08-19T02:18:25;22.90;99.90
44271;DHT22;29963;44.594;11.368;2022-08-19T02:20:52;22.80;99.90
44271;DHT22;29963;44.594;11.368;2022-08-19T02:23:18;22.70;99.90
44271;DHT22;29963;44.594;11.368;2022-08-19T02:25:46;22.70;99.90
44271;DHT22;29963;44.594;11.368;2022-08-19T02:28:12;22.60;99.90
44271;DHT22;29963;44.594;11.368;2022-08-19T02:30:38;22.60;99.90
44271;DHT22;29963;44.594;11.368;2022-08-19T02:33:05;22.50;99.90
44271;DHT22;29963;44.594;11.368;2022-08-19T02:35:31;22.50;99.90
44271;DHT22;29963;44.594;11.368;2022-08-19T02:37:57;22.40;99.90
44271;DHT22;29963;44.594;11.368;2022-08-19T02:40:48;22.40;99.90
44271;DHT22;29963;44.594;11.368;2022-08-19T02:43:15;22.40;99.90
44271;DHT22;29963;44.594;11.368;2022-08-19T02:45:40;22.40;99.90
44271;DHT22;29963;44.594;11.368;2022-08-19T02:48:06;22.50;99.90
44271;DHT22;29963;44.594;11.368;2022-08-19T02:50:37;22.40;99.90
44271;DHT22;29963;44.594;11.368;2022-08-19T02:53:04;22.30;99.90
44271;DHT22;29963;44.594;11.368;2022-08-19T02:55:30;22.20;99.90
44271;DHT22;29963;44.594;11.368;2022-08-19T02:57:55;22.20;99.90
44271;DHT22;29963;44.594;11.368;2022-08-19T03:00:22;22.30;99.90
44271;DHT22;29963;44.594;11.368;2022-08-19T03:02:49;22.30;99.90
44271;DHT22;29963;44.594;11.368;2022-08-19T03:05:15;22.20;99.90
44271;DHT22;29963;44.594;11.368;2022-08-19T03:07:40;22.20;99.90
44271;DHT22;29963;44.594;11.368;2022-08-19T03:10:07;22.20;99.90
44271;DHT22;29963;44.594;11.368;2022-08-19T03:12:36;22.20;99.90
44271;DHT22;29963;44.594;11.368;2022-08-19T03:15:07;22.20;99.90
44271;DHT22;29963;44.594;11.368;2022-08-19T03:17:34;22.10;99.90
44271;DHT22;29963;44.594;11.368;2022-08-19T03:20:00;22.00;99.90
44271;DHT22;29963;44.594;11.368;2022-08-19T03:22:25;22.00;99.90
44271;DHT22;29963;44.594;11.368;2022-08-19T03:24:51;22.10;99.90
44271;DHT22;29963;44.594;11.368;2022-08-19T03:27:17;22.20;99.90
44271;DHT22;29963;44.594;11.368;2022-08-19T03:29:43;22.30;99.90
44271;DHT22;29963;44.594;11.368;2022-08-19T03:32:10;22.30;99.90
44271;DHT22;29963;44.594;11.368;2022-08-19T03:34:38;22.40;99.90
44271;DHT22;29963;44.594;11.368;2022-08-19T03:37:07;22.40;99.90
44271;DHT22;29963;44.594;11.368;2022-08-19T03:39:35;22.40;99.90
44271;DHT22;29963;44.594;11.368;2022-08-19T03:42:01;22.40;99.90
44271;DHT22;29963;44.594;11.368;2022-08-19T03:44:28;22.50;99.90
44271;DHT22;29963;44.594;11.368;2022-08-19T03:46:56;22.50;99.90
44271;DHT22;29963;44.594;11.368;2022-08-19T03:49:25;22.50;99.90
44271;DHT22;29963;44.594;11.368;2022-08-19T03:51:53;22.50;99.90
44271;DHT22;29963;44.594;11.368;2022-08-19T03:54:23;22.50;99.90
44271;DHT22;29963;44.594;11.368;2022-08-19T03:56:52;22.50;99.90
44271;DHT22;29963;44.594;11.368;2022-08-19T03:59:26;22.40;99.90
44271;DHT22;29963;44.594;11.368;2022-08-19T04:01:54;22.50;99.90
44271;DHT22;29963;44.594;11.368;2022-08-19T04:04:20;22.50;99.90
44271;DHT22;29963;44.594;11.368;2022-08-19T04:06:46;22.50;99.90
44271;DHT22;29963;44.594;11.368;2022-08-19T04:09:12;22.50;99.90
44271;DHT22;29963;44.594;11.368;2022-08-19T04:11:41;22.60;99.90
44271;DHT22;29963;44.594;11.368;2022-08-19T04:14:08;22.60;99.90
44271;DHT22;29963;44.594;11.368;2022-08-19T04:16:35;22.70;99.90
44271;DHT22;29963;44.594;11.368;2022-08-19T04:19:03;22.70;99.90
44271;DHT22;29963;44.594;11.368;2022-08-19T04:21:29;22.70;99.90
44271;DHT22;29963;44.594;11.368;2022-08-19T04:23:55;22.70;99.90
44271;DHT22;29963;44.594;11.368;2022-08-19T04:26:27;22.70;99.90
44271;DHT22;29963;44.594;11.368;2022-08-19T04:28:54;22.80;99.90
44271;DHT22;29963;44.594;11.368;2022-08-19T04:31:26;22.80;99.90
44271;DHT22;29963;44.594;11.368;2022-08-19T04:33:53;22.80;99.90
44271;DHT22;29963;44.594;11.368;2022-08-19T04:36:31;22.90;99.90
44271;DHT22;29963;44.594;11.368;2022-08-19T04:38:59;22.90;99.90
44271;DHT22;29963;44.594;11.368;2022-08-19T04:41:25;22.90;99.90
44271;DHT22;29963;44.594;11.368;2022-08-19T04:44:10;23.00;99.90
44271;DHT22;29963;44.594;11.368;2022-08-19T04:46:36;22.90;99.90
44271;DHT22;29963;44.594;11.368;2022-08-19T04:49:03;23.00;99.90
44271;DHT22;29963;44.594;11.368;2022-08-19T04:51:31;23.00;99.90
44271;DHT22;29963;44.594;11.368;2022-08-19T04:53:57;23.00;99.90
44271;DHT22;29963;44.594;11.368;2022-08-19T04:56:24;23.00;99.90
44271;DHT22;29963;44.594;11.368;2022-08-19T04:58:52;23.00;99.90
44271;DHT22;29963;44.594;11.368;2022-08-19T05:01:23;23.00;99.90
44271;DHT22;29963;44.594;11.368;2022-08-19T05:03:52;22.90;99.90
44271;DHT22;29963;44.594;11.368;2022-08-19T05:06:20;22.90;99.90
44271;DHT22;29963;44.594;11.368;2022-08-19T05:08:47;22.90;99.90
44271;DHT22;29963;44.594;11.368;2022-08-19T05:11:19;22.90;99.90
44271;DHT22;29963;44.594;11.368;2022-08-19T05:13:48;22.90;99.90
44271;DHT22;29963;44.594;11.368;2022-08-19T05:16:15;22.90;99.90
44271;DHT22;29963;44.594;11.368;2022-08-19T05:18:41;22.90;99.90
44271;DHT22;29963;44.594;11.368;2022-08-19T05:21:27;22.90;99.90
44271;DHT22;29963;44.594;11.368;2022-08-19T05:24:12;22.80;99.90
44271;DHT22;29963;44.594;11.368;2022-08-19T05:26:41;22.80;99.90
44271;DHT22;29963;44.594;11.368;2022-08-19T05:29:08;22.70;99.90
44271;DHT22;29963;44.594;11.368;2022-08-19T05:31:34;22.70;99.90
44271;DHT22;29963;44.594;11.368;2022-08-19T05:34:01;22.60;99.90
44271;DHT22;29963;44.594;11.368;2022-08-19T05:36:28;22.60;99.90
44271;DHT22;29963;44.594;11.368;2022-08-19T05:38:54;22.50;99.90
44271;DHT22;29963;44.594;11.368;2022-08-19T05:41:22;22.50;99.90
44271;DHT22;29963;44.594;11.368;2022-08-19T05:43:55;22.20;99.90
44271;DHT22;29963;44.594;11.368;2022-08-19T05:46:21;21.90;99.90
44271;DHT22;29963;44.594;11.368;2022-08-19T05:48:47;21.20;99.90
44271;DHT22;29963;44.594;11.368;2022-08-19T05:51:14;20.40;99.90
44271;DHT22;29963;44.594;11.368;2022-08-19T05:53:42;19.70;99.90
44271;DHT22;29963;44.594;11.368;2022-08-19T07:10:24;18.60;99.90
44271;DHT22;29963;44.594;11.368;2022-08-19T07:12:50;19.20;99.90
44271;DHT22;29963;44.594;11.368;2022-08-19T07:15:16;19.30;99.90
44271;DHT22;29963;44.594;11.368;2022-08-19T07:17:42;19.50;99.90
44271;DHT22;29963;44.594;11.368;2022-08-19T07:20:09;19.60;99.90
